sensor_id;sensor_type;location;lat;lon;timestamp;temperature;humidity
14093;DHT22;7123;49.468;10.992;2023-07-13T00:00:11;22.40;99.90
14093;DHT22;7123;49.468;10.992;2023-07-13T00:02:38;22.40;99.90
14093;DHT22;7123;49.468;10.992;2023-07-13T00:05:05;22.40;99.90
14093;DHT22;7123;49.468;10.992;2023-07-13T00:07:33;22.40;99.90
14093;DHT22;7123;49.468;10.992;2023-07-13T00:10:02;22.40;99.90
14093;DHT22;7123;49.468;10.992;2023-07-13T00:12:31;22.40;99.90
14093;DHT22;7123;49.468;10.992;2023-07-13T00:15:00;22.40;99.90
14093;DHT22;7123;49.468;10.992;2023-07-13T00:17:28;22.40;99.90
14093;DHT22;7123;49.468;10.992;2023-07-13T00:19:56;22.50;99.90
14093;DHT22;7123;49.468;10.992;2023-07-13T00:22:24;22.50;99.90
14093;DHT22;7123;49.468;10.992;2023-07-13T00:24:53;22.40;99.90
14093;DHT22;7123;49.468;10.992;2023-07-13T00:27:22;22.40;99.90
14093;DHT22;7123;49.468;10.992;2023-07-13T00:29:49;22.40;99.90
14093;DHT22;7123;49.468;10.992;2023-07-13T00:32:16;22.40;99.90
14093;DHT22;7123;49.468;10.992;2023-07-13T00:34:43;22.50;99.90
14093;DHT22;7123;49.468;10.992;2023-07-13T00:37:10;22.50;99.90
14093;DHT22;7123;49.468;10.992;2023-07-13T00:39:37;22.50;99.90
14093;DHT22;7123;49.468;10.992;2023-07-13T00:42:05;22.50;99.90
14093;DHT22;7123;49.468;10.992;2023-07-13T00:44:33;22.40;99.90
14093;DHT22;7123;49.468;10.992;2023-07-13T00:47:00;22.50;99.90
14093;DHT22;7123;49.468;10.992;2023-07-13T00:49:29;22.40;99.90
14093;DHT22;7123;49.468;10.992;2023-07-13T00:52:05;22.40;99.90
14093;DHT22;7123;49.468;10.992;2023-07-13T00:54:41;22.40;99.90
14093;DHT22;7123;49.468;10.992;2023-07-13T00:57:15;22.40;99.90
14093;DHT22;7123;49.468;10.992;2023-07-13T00:59:47;22.40;99.90
14093;DHT22;7123;49.468;10.992;2023-07-13T01:02:15;22.40;99.90
14093;DHT22;7123;49.468;10.992;2023-07-13T01:04:42;22.40;99.90
14093;DHT22;7123;49.468;10.992;2023-07-13T01:07:11;22.70;99.90
14093;DHT22;7123;49.468;10.992;2023-07-13T01:09:38;22.70;99.90
14093;DHT22;7123;49.468;10.992;2023-07-13T01:12:05;22.60;99.90
14093;DHT22;7123;49.468;10.992;2023-07-13T01:14:32;22.70;99.90
14093;DHT22;7123;49.468;10.992;2023-07-13T01:16:59;23.00;99.90
14093;DHT22;7123;49.468;10.992;2023-07-13T01:19:37;23.30;99.90
14093;DHT22;7123;49.468;10.992;2023-07-13T01:22:11;23.30;99.90
14093;DHT22;7123;49.468;10.992;2023-07-13T01:24:42;23.20;99.90
14093;DHT22;7123;49.468;10.992;2023-07-13T01:27:15;22.80;99.90
14093;DHT22;7123;49.468;10.992;2023-07-13T01:29:43;22.50;99.90
14093;DHT22;7123;49.468;10.992;2023-07-13T01:32:14;22.40;99.90
14093;DHT22;7123;49.468;10.992;2023-07-13T01:34:41;22.30;99.90
14093;DHT22;7123;49.468;10.992;2023-07-13T01:37:12;22.10;99.90
14093;DHT22;7123;49.468;10.992;2023-07-13T01:39:39;21.90;99.90
14093;DHT22;7123;49.468;10.992;2023-07-13T01:42:06;21.90;99.90
14093;DHT22;7123;49.468;10.992;2023-07-13T01:44:33;21.70;99.90
14093;DHT22;7123;49.468;10.992;2023-07-13T01:47:01;21.60;99.90
14093;DHT22;7123;49.468;10.992;2023-07-13T01:49:28;21.60;99.90
14093;DHT22;7123;49.468;10.992;2023-07-13T01:51:55;21.60;99.90
14093;DHT22;7123;49.468;10.992;2023-07-13T01:54:22;21.60;99.90
14093;DHT22;7123;49.468;10.992;2023-07-13T01:56:49;21.50;99.90
14093;DHT22;7123;49.468;10.992;2023-07-13T01:59:15;21.50;99.90
14093;DHT22;7123;49.468;10.992;2023-07-13T02:01:42;21.40;99.90
14093;DHT22;7123;49.468;10.992;2023-07-13T02:04:09;21.30;99.90
14093;DHT22;7123;49.468;10.992;2023-07-13T02:06:37;21.20;99.90
14093;DHT22;7123;49.468;10.992;2023-07-13T02:09:04;21.20;99.90
14093;DHT22;7123;49.468;10.992;2023-07-13T02:11:30;21.20;99.90
14093;DHT22;7123;49.468;10.992;2023-07-13T02:14:00;21.20;99.90
14093;DHT22;7123;49.468;10.992;2023-07-13T02:16:29;21.10;99.90
14093;DHT22;7123;49.468;10.992;2023-07-13T02:18:57;21.10;99.90
14093;DHT22;7123;49.468;10.992;2023-07-13T02:21:24;21.00;99.90
14093;DHT22;7123;49.468;10.992;2023-07-13T02:23:51;20.90;99.90
14093;DHT22;7123;49.468;10.992;2023-07-13T02:26:19;20.80;99.90
14093;DHT22;7123;49.468;10.992;2023-07-13T02:28:46;20.80;99.90
14093;DHT22;7123;49.468;10.992;2023-07-13T02:31:15;20.90;99.90
14093;DHT22;7123;49.468;10.992;2023-07-13T02:33:42;20.90;99.90
14093;DHT22;7123;49.468;10.992;2023-07-13T02:36:09;20.80;99.90
14093;DHT22;7123;49.468;10.992;2023-07-13T02:38:37;20.70;99.90
14093;DHT22;7123;49.468;10.992;2023-07-13T02:41:05;20.60;99.90
14093;DHT22;7123;49.468;10.992;2023-07-13T02:43:32;20.50;99.90
14093;DHT22;7123;49.468;10.992;2023-07-13T02:45:59;20.40;99.90
14093;DHT22;7123;49.468;10.992;2023-07-13T02:48:30;20.30;99.90
14093;DHT22;7123;49.468;10.992;2023-07-13T02:50:57;20.30;99.90
14093;DHT22;7123;49.468;10.992;2023-07-13T02:53:24;20.20;99.90
14093;DHT22;7123;49.468;10.992;2023-07-13T02:55:50;20.10;99.90
14093;DHT22;7123;49.468;10.992;2023-07-13T02:58:18;20.10;99.90
14093;DHT22;7123;49.468;10.992;2023-07-13T03:00:46;20.10;99.90
14093;DHT22;7123;49.468;10.992;2023-07-13T03:03:16;20.00;99.90
14093;DHT22;7123;49.468;10.992;2023-07-13T03:05:44;20.10;99.90
14093;DHT22;7123;49.468;10.992;2023-07-13T03:08:15;20.10;99.90
14093;DHT22;7123;49.468;10.992;2023-07-13T03:10:42;20.10;99.90
14093;DHT22;7123;49.468;10.992;2023-07-13T03:13:09;20.00;99.90
14093;DHT22;7123;49.468;10.992;2023-07-13T03:15:36;20.10;99.90
14093;DHT22;7123;49.468;10.992;2023-07-13T03:18:02;20.00;99.90
14093;DHT22;7123;49.468;10.992;2023-07-13T03:20:33;20.00;99.90
14093;DHT22;7123;49.468;10.992;2023-07-13T03:22:59;20.00;99.90
14093;DHT22;7123;49.468;10.992;2023-07-13T03:25:26;19.80;99.90
14093;DHT22;7123;49.468;10.992;2023-07-13T03:27:53;19.90;99.90
14093;DHT22;7123;49.468;10.992;2023-07-13T03:30:20;19.90;99.90
14093;DHT22;7123;49.468;10.992;2023-07-13T03:32:47;19.90;99.90
14093;DHT22;7123;49.468;10.992;2023-07-13T03:35:14;19.80;99.90
14093;DHT22;7123;49.468;10.992;2023-07-13T03:37:41;19.80;99.90
14093;DHT22;7123;49.468;10.992;2023-07-13T03:40:10;19.80;99.90
14093;DHT22;7123;49.468;10.992;2023-07-13T03:42:36;19.70;99.90
14093;DHT22;7123;49.468;10.992;2023-07-13T03:45:04;19.70;99.90
14093;DHT22;7123;49.468;10.992;2023-07-13T03:47:30;19.60;99.90
14093;DHT22;7123;49.468;10.992;2023-07-13T03:49:57;19.50;99.90
14093;DHT22;7123;49.468;10.992;2023-07-13T03:52:24;19.50;99.90
14093;DHT22;7123;49.468;10.992;2023-07-13T03:54:51;19.40;99.90
14093;DHT22;7123;49.468;10.992;2023-07-13T03:57:18;19.50;99.90
14093;DHT22;7123;49.468;10.992;2023-07-13T03:59:45;19.50;99.90
14093;DHT22;7123;49.468;10.992;2023-07-13T04:02:12;19.50;99.90
14093;DHT22;7123;49.468;10.992;2023-07-13T04:04:39;19.50;99.90
14093;DHT22;7123;49.468;10.992;2023-07-13T04:07:07;19.50;99.90
14093;DHT22;7123;49.468;10.992;2023-07-13T04:09:35;19.50;99.90
14093;DHT22;7123;49.468;10.992;2023-07-13T04:12:02;19.40;99.90
14093;DHT22;7123;49.468;10.992;2023-07-13T04:14:29;19.30;99.90
14093;DHT22;7123;49.468;10.992;2023-07-13T04:16:56;19.40;99.90
14093;DHT22;7123;49.468;10.992;2023-07-13T04:19:24;19.30;99.90
14093;DHT22;7123;49.468;10.992;2023-07-13T04:21:50;19.30;99.90
14093;DHT22;7123;49.468;10.992;2023-07-13T04:24:17;19.30;99.90
14093;DHT22;7123;49.468;10.992;2023-07-13T04:26:44;19.40;99.90
14093;DHT22;7123;49.468;10.992;2023-07-13T04:29:10;19.40;99.90
14093;DHT22;7123;49.468;10.992;2023-07-13T04:31:37;19.40;99.90
14093;DHT22;7123;49.468;10.992;2023-07-13T04:34:04;19.40;99.90
14093;DHT22;7123;49.468;10.992;2023-07-13T04:36:31;19.40;99.90
14093;DHT22;7123;49.468;10.992;2023-07-13T04:38:57;19.30;99.90
14093;DHT22;7123;49.468;10.992;2023-07-13T04:41:25;19.30;99.90
14093;DHT22;7123;49.468;10.992;2023-07-13T04:43:51;19.30;99.90
14093;DHT22;7123;49.468;10.992;2023-07-13T04:46:22;19.30;99.90
14093;DHT22;7123;49.468;10.992;2023-07-13T04:48:49;19.40;99.90
14093;DHT22;7123;49.468;10.992;2023-07-13T04:51:17;19.50;99.90
14093;DHT22;7123;49.468;10.992;2023-07-13T04:53:44;19.40;99.90
14093;DHT22;7123;49.468;10.992;2023-07-13T04:56:11;19.40;99.90
14093;DHT22;7123;49.468;10.992;2023-07-13T04:58:38;19.50;99.90
14093;DHT22;7123;49.468;10.992;2023-07-13T05:01:07;19.50;99.90
14093;DHT22;7123;49.468;10.992;2023-07-13T05:03:36;19.40;99.90
14093;DHT22;7123;49.468;10.992;2023-07-13T05:06:06;19.40;99.90
14093;DHT22;7123;49.468;10.992;2023-07-13T05:08:36;19.30;99.90
14093;DHT22;7123;49.468;10.992;2023-07-13T05:11:04;19.20;99.90
14093;DHT22;7123;49.468;10.992;2023-07-13T05:13:31;19.20;99.90
14093;DHT22;7123;49.468;10.992;2023-07-13T05:16:01;19.30;99.90
14093;DHT22;7123;49.468;10.992;2023-07-13T05:18:29;19.30;99.90
14093;DHT22;7123;49.468;10.992;2023-07-13T05:21:00;19.20;99.90
14093;DHT22;7123;49.468;10.992;2023-07-13T05:23:28;19.20;99.90
14093;DHT22;7123;49.468;10.992;2023-07-13T05:25:55;19.20;99.90
14093;DHT22;7123;49.468;10.992;2023-07-13T05:28:21;19.20;99.90
14093;DHT22;7123;49.468;10.992;2023-07-13T05:30:49;19.20;99.90
14093;DHT22;7123;49.468;10.992;2023-07-13T05:33:16;19.30;99.90
14093;DHT22;7123;49.468;10.992;2023-07-13T05:35:43;19.30;99.90
14093;DHT22;7123;49.468;10.992;2023-07-13T05:38:10;19.50;99.90
14093;DHT22;7123;49.468;10.992;2023-07-13T05:40:37;19.50;99.90
14093;DHT22;7123;49.468;10.992;2023-07-13T05:43:04;19.60;99.90
14093;DHT22;7123;49.468;10.992;2023-07-13T05:45:31;19.70;99.90
14093;DHT22;7123;49.468;10.992;2023-07-13T05:47:57;19.70;99.90
14093;DHT22;7123;49.468;10.992;2023-07-13T05:50:26;19.70;99.90
14093;DHT22;7123;49.468;10.992;2023-07-13T05:52:52;19.70;99.90
14093;DHT22;7123;49.468;10.992;2023-07-13T05:55:20;19.70;99.90
14093;DHT22;7123;49.468;10.992;2023-07-13T05:57:47;19.70;99.90
14093;DHT22;7123;49.468;10.992;2023-07-13T06:00:14;19.70;99.90
14093;DHT22;7123;49.468;10.992;2023-07-13T06:02:41;19.80;99.90
14093;DHT22;7123;49.468;10.992;2023-07-13T06:05:08;19.90;99.90
14093;DHT22;7123;49.468;10.992;2023-07-13T06:07:35;20.00;99.90
14093;DHT22;7123;49.468;10.992;2023-07-13T06:10:02;20.00;99.90
14093;DHT22;7123;49.468;10.992;2023-07-13T06:12:29;20.00;99.90
14093;DHT22;7123;49.468;10.992;2023-07-13T06:14:55;20.00;99.90
14093;DHT22;7123;49.468;10.992;2023-07-13T06:17:22;20.10;99.90
14093;DHT22;7123;49.468;10.992;2023-07-13T06:19:49;20.10;99.90
14093;DHT22;7123;49.468;10.992;2023-07-13T06:22:16;20.00;99.90
14093;DHT22;7123;49.468;10.992;2023-07-13T06:24:42;19.90;99.90
14093;DHT22;7123;49.468;10.992;2023-07-13T06:27:09;19.90;99.90
14093;DHT22;7123;49.468;10.992;2023-07-13T06:29:36;19.90;99.90
14093;DHT22;7123;49.468;10.992;2023-07-13T06:32:03;19.90;99.90
14093;DHT22;7123;49.468;10.992;2023-07-13T06:34:30;20.00;99.90
14093;DHT22;7123;49.468;10.992;2023-07-13T06:36:57;20.00;99.90
14093;DHT22;7123;49.468;10.992;2023-07-13T06:39:24;20.10;99.90
14093;DHT22;7123;49.468;10.992;2023-07-13T06:41:51;20.20;99.90
14093;DHT22;7123;49.468;10.992;2023-07-13T06:44:17;20.30;99.90
14093;DHT22;7123;49.468;10.992;2023-07-13T06:46:44;20.30;99.90
14093;DHT22;7123;49.468;10.992;2023-07-13T06:49:11;20.40;99.90
14093;DHT22;7123;49.468;10.992;2023-07-13T06:51:38;20.40;99.90
14093;DHT22;7123;49.468;10.992;2023-07-13T06:54:04;20.50;99.90
14093;DHT22;7123;49.468;10.992;2023-07-13T06:56:31;20.50;99.90
14093;DHT22;7123;49.468;10.992;2023-07-13T06:58:58;20.60;99.90
14093;DHT22;7123;49.468;10.992;2023-07-13T07:01:25;20.50;99.90
14093;DHT22;7123;49.468;10.992;2023-07-13T07:03:52;20.40;99.90
14093;DHT22;7123;49.468;10.992;2023-07-13T07:06:20;20.40;99.90
14093;DHT22;7123;49.468;10.992;2023-07-13T07:08:51;20.40;99.90
14093;DHT22;7123;49.468;10.992;2023-07-13T07:11:20;20.50;99.90
14093;DHT22;7123;49.468;10.992;2023-07-13T07:13:49;20.60;99.90
14093;DHT22;7123;49.468;10.992;2023-07-13T07:16:16;20.80;99.90
14093;DHT22;7123;49.468;10.992;2023-07-13T07:18:44;20.80;99.90
14093;DHT22;7123;49.468;10.992;2023-07-13T07:21:11;20.80;99.90
14093;DHT22;7123;49.468;10.992;2023-07-13T07:23:39;20.90;99.90
14093;DHT22;7123;49.468;10.992;2023-07-13T07:26:06;21.10;99.90
14093;DHT22;7123;49.468;10.992;2023-07-13T07:28:35;21.20;99.90
14093;DHT22;7123;49.468;10.992;2023-07-13T07:31:05;21.30;99.90
14093;DHT22;7123;49.468;10.992;2023-07-13T07:33:35;21.30;99.90
14093;DHT22;7123;49.468;10.992;2023-07-13T07:36:02;21.20;99.90
14093;DHT22;7123;49.468;10.992;2023-07-13T07:38:32;21.20;99.90
14093;DHT22;7123;49.468;10.992;2023-07-13T07:41:03;21.30;99.90
14093;DHT22;7123;49.468;10.992;2023-07-13T07:43:33;21.30;99.90
14093;DHT22;7123;49.468;10.992;2023-07-13T07:46:03;21.40;99.90
14093;DHT22;7123;49.468;10.992;2023-07-13T07:48:30;21.50;99.90
14093;DHT22;7123;49.468;10.992;2023-07-13T07:50:57;21.50;99.90
14093;DHT22;7123;49.468;10.992;2023-07-13T07:53:24;21.50;99.90
14093;DHT22;7123;49.468;10.992;2023-07-13T07:55:51;21.50;99.90
14093;DHT22;7123;49.468;10.992;2023-07-13T07:58:21;21.60;99.90
14093;DHT22;7123;49.468;10.992;2023-07-13T08:00:50;21.60;99.90
14093;DHT22;7123;49.468;10.992;2023-07-13T08:03:20;21.60;99.90
14093;DHT22;7123;49.468;10.992;2023-07-13T08:05:53;21.60;99.90
14093;DHT22;7123;49.468;10.992;2023-07-13T08:08:24;21.50;99.90
14093;DHT22;7123;49.468;10.992;2023-07-13T08:10:50;21.50;99.90
14093;DHT22;7123;49.468;10.992;2023-07-13T08:13:21;21.60;99.90
14093;DHT22;7123;49.468;10.992;2023-07-13T08:15:48;21.80;99.90
14093;DHT22;7123;49.468;10.992;2023-07-13T08:18:16;21.90;99.90
14093;DHT22;7123;49.468;10.992;2023-07-13T08:20:43;22.00;99.90
14093;DHT22;7123;49.468;10.992;2023-07-13T08:23:10;21.90;99.90
14093;DHT22;7123;49.468;10.992;2023-07-13T08:25:37;21.90;99.90
14093;DHT22;7123;49.468;10.992;2023-07-13T08:28:04;21.90;99.90
14093;DHT22;7123;49.468;10.992;2023-07-13T08:30:30;22.00;99.90
14093;DHT22;7123;49.468;10.992;2023-07-13T08:32:58;22.20;99.90
14093;DHT22;7123;49.468;10.992;2023-07-13T08:35:25;22.20;99.90
14093;DHT22;7123;49.468;10.992;2023-07-13T08:37:52;22.20;99.90
14093;DHT22;7123;49.468;10.992;2023-07-13T08:40:23;22.20;99.90
14093;DHT22;7123;49.468;10.992;2023-07-13T08:42:56;22.20;99.90
14093;DHT22;7123;49.468;10.992;2023-07-13T08:45:44;22.20;99.90
14093;DHT22;7123;49.468;10.992;2023-07-13T08:48:20;22.10;99.90
14093;DHT22;7123;49.468;10.992;2023-07-13T08:53:48;21.90;99.90
14093;DHT22;7123;49.468;10.992;2023-07-13T08:56:23;21.90;99.90
14093;DHT22;7123;49.468;10.992;2023-07-13T08:59:09;22.00;99.90
14093;DHT22;7123;49.468;10.992;2023-07-13T09:04:18;22.10;99.90
14093;DHT22;7123;49.468;10.992;2023-07-13T09:06:58;22.10;99.90
14093;DHT22;7123;49.468;10.992;2023-07-13T09:09:43;22.30;99.90
14093;DHT22;7123;49.468;10.992;2023-07-13T09:12:17;22.40;99.90
14093;DHT22;7123;49.468;10.992;2023-07-13T09:14:50;22.50;99.90
14093;DHT22;7123;49.468;10.992;2023-07-13T09:17:27;22.50;99.90
14093;DHT22;7123;49.468;10.992;2023-07-13T09:20:02;22.50;99.90
14093;DHT22;7123;49.468;10.992;2023-07-13T09:22:36;22.60;99.90
14093;DHT22;7123;49.468;10.992;2023-07-13T09:27:40;22.50;99.90
14093;DHT22;7123;49.468;10.992;2023-07-13T09:32:44;22.70;99.90
14093;DHT22;7123;49.468;10.992;2023-07-13T09:35:15;22.70;99.90
14093;DHT22;7123;49.468;10.992;2023-07-13T09:37:45;22.80;99.90
14093;DHT22;7123;49.468;10.992;2023-07-13T09:40:27;22.90;99.90
14093;DHT22;7123;49.468;10.992;2023-07-13T09:42:56;22.90;99.90
14093;DHT22;7123;49.468;10.992;2023-07-13T09:45:29;22.90;99.90
14093;DHT22;7123;49.468;10.992;2023-07-13T09:48:04;22.90;99.90
14093;DHT22;7123;49.468;10.992;2023-07-13T09:50:31;22.80;99.90
14093;DHT22;7123;49.468;10.992;2023-07-13T09:53:01;22.90;99.90
14093;DHT22;7123;49.468;10.992;2023-07-13T09:55:38;22.90;99.90
14093;DHT22;7123;49.468;10.992;2023-07-13T09:58:19;22.90;99.90
14093;DHT22;7123;49.468;10.992;2023-07-13T10:01:00;22.90;99.90
14093;DHT22;7123;49.468;10.992;2023-07-13T10:03:36;22.80;99.90
14093;DHT22;7123;49.468;10.992;2023-07-13T10:06:18;22.70;99.90
14093;DHT22;7123;49.468;10.992;2023-07-13T10:08:46;22.80;99.90
14093;DHT22;7123;49.468;10.992;2023-07-13T10:11:28;22.90;99.90
14093;DHT22;7123;49.468;10.992;2023-07-13T10:13:58;23.00;99.90
14093;DHT22;7123;49.468;10.992;2023-07-13T10:16:31;23.10;99.90
14093;DHT22;7123;49.468;10.992;2023-07-13T10:19:09;23.30;99.90
14093;DHT22;7123;49.468;10.992;2023-07-13T10:21:47;23.30;99.90
14093;DHT22;7123;49.468;10.992;2023-07-13T10:24:20;23.20;99.90
14093;DHT22;7123;49.468;10.992;2023-07-13T10:27:30;23.20;99.90
14093;DHT22;7123;49.468;10.992;2023-07-13T10:30:32;23.10;99.90
14093;DHT22;7123;49.468;10.992;2023-07-13T10:33:10;23.10;99.90
14093;DHT22;7123;49.468;10.992;2023-07-13T10:35:40;23.20;99.90
14093;DHT22;7123;49.468;10.992;2023-07-13T10:38:14;23.20;99.90
14093;DHT22;7123;49.468;10.992;2023-07-13T10:41:05;23.20;99.90
14093;DHT22;7123;49.468;10.992;2023-07-13T10:43:41;23.30;99.90
14093;DHT22;7123;49.468;10.992;2023-07-13T10:46:12;23.40;99.90
14093;DHT22;7123;49.468;10.992;2023-07-13T10:48:41;23.40;99.90
14093;DHT22;7123;49.468;10.992;2023-07-13T10:51:10;23.30;99.90
14093;DHT22;7123;49.468;10.992;2023-07-13T10:53:38;23.30;99.90
14093;DHT22;7123;49.468;10.992;2023-07-13T10:56:28;23.50;99.90
14093;DHT22;7123;49.468;10.992;2023-07-13T10:59:25;23.60;99.90
14093;DHT22;7123;49.468;10.992;2023-07-13T11:01:56;23.50;99.90
14093;DHT22;7123;49.468;10.992;2023-07-13T11:04:26;23.40;99.90
14093;DHT22;7123;49.468;10.992;2023-07-13T11:06:58;23.40;99.90
14093;DHT22;7123;49.468;10.992;2023-07-13T11:09:40;23.40;99.90
14093;DHT22;7123;49.468;10.992;2023-07-13T11:14:44;23.50;99.90
14093;DHT22;7123;49.468;10.992;2023-07-13T11:22:45;23.90;99.90
14093;DHT22;7123;49.468;10.992;2023-07-13T11:27:51;24.10;99.90
14093;DHT22;7123;49.468;10.992;2023-07-13T11:30:31;24.20;99.90
14093;DHT22;7123;49.468;10.992;2023-07-13T11:33:18;24.00;99.40
14093;DHT22;7123;49.468;10.992;2023-07-13T11:38:26;24.20;99.90
14093;DHT22;7123;49.468;10.992;2023-07-13T11:40:54;24.30;99.30
14093;DHT22;7123;49.468;10.992;2023-07-13T11:43:24;24.30;99.30
14093;DHT22;7123;49.468;10.992;2023-07-13T11:45:52;24.30;99.70
14093;DHT22;7123;49.468;10.992;2023-07-13T11:48:28;24.40;99.30
14093;DHT22;7123;49.468;10.992;2023-07-13T11:51:01;24.30;99.70
14093;DHT22;7123;49.468;10.992;2023-07-13T11:53:49;24.40;99.90
14093;DHT22;7123;49.468;10.992;2023-07-13T11:56:17;24.30;99.90
14093;DHT22;7123;49.468;10.992;2023-07-13T11:58:44;24.20;99.90
14093;DHT22;7123;49.468;10.992;2023-07-13T12:01:27;24.20;99.90
14093;DHT22;7123;49.468;10.992;2023-07-13T12:04:01;24.10;99.90
14093;DHT22;7123;49.468;10.992;2023-07-13T12:06:34;24.20;99.90
14093;DHT22;7123;49.468;10.992;2023-07-13T12:09:14;24.30;99.90
14093;DHT22;7123;49.468;10.992;2023-07-13T12:11:43;24.50;99.90
14093;DHT22;7123;49.468;10.992;2023-07-13T12:14:15;24.50;99.90
14093;DHT22;7123;49.468;10.992;2023-07-13T12:16:43;24.60;99.90
14093;DHT22;7123;49.468;10.992;2023-07-13T12:19:22;24.50;99.90
14093;DHT22;7123;49.468;10.992;2023-07-13T12:21:52;24.60;99.90
14093;DHT22;7123;49.468;10.992;2023-07-13T12:24:20;24.70;99.90
14093;DHT22;7123;49.468;10.992;2023-07-13T12:27:03;24.80;99.90
14093;DHT22;7123;49.468;10.992;2023-07-13T12:29:33;24.80;99.90
14093;DHT22;7123;49.468;10.992;2023-07-13T12:32:00;24.80;99.90
14093;DHT22;7123;49.468;10.992;2023-07-13T12:34:27;24.70;99.90
14093;DHT22;7123;49.468;10.992;2023-07-13T12:36:59;24.80;99.90
14093;DHT22;7123;49.468;10.992;2023-07-13T12:42:32;24.90;99.90
14093;DHT22;7123;49.468;10.992;2023-07-13T12:45:24;24.90;99.30
14093;DHT22;7123;49.468;10.992;2023-07-13T12:47:54;25.00;99.40
14093;DHT22;7123;49.468;10.992;2023-07-13T12:50:23;24.90;99.10
14093;DHT22;7123;49.468;10.992;2023-07-13T12:52:52;24.80;98.70
14093;DHT22;7123;49.468;10.992;2023-07-13T12:55:21;24.70;98.90
14093;DHT22;7123;49.468;10.992;2023-07-13T12:57:54;24.70;98.60
14093;DHT22;7123;49.468;10.992;2023-07-13T13:00:33;24.60;99.10
14093;DHT22;7123;49.468;10.992;2023-07-13T13:03:16;24.50;99.50
14093;DHT22;7123;49.468;10.992;2023-07-13T13:06:04;24.50;99.10
14093;DHT22;7123;49.468;10.992;2023-07-13T13:08:34;24.50;99.20
14093;DHT22;7123;49.468;10.992;2023-07-13T13:11:02;24.70;99.30
14093;DHT22;7123;49.468;10.992;2023-07-13T13:13:28;24.80;99.80
14093;DHT22;7123;49.468;10.992;2023-07-13T13:15:55;24.90;99.20
14093;DHT22;7123;49.468;10.992;2023-07-13T13:18:23;25.00;99.20
14093;DHT22;7123;49.468;10.992;2023-07-13T13:20:51;25.00;99.40
14093;DHT22;7123;49.468;10.992;2023-07-13T13:23:20;25.10;98.80
14093;DHT22;7123;49.468;10.992;2023-07-13T13:25:49;25.10;98.70
14093;DHT22;7123;49.468;10.992;2023-07-13T13:28:18;25.10;98.90
14093;DHT22;7123;49.468;10.992;2023-07-13T13:30:47;25.00;99.00
14093;DHT22;7123;49.468;10.992;2023-07-13T13:33:19;25.00;98.90
14093;DHT22;7123;49.468;10.992;2023-07-13T13:35:46;25.10;98.80
14093;DHT22;7123;49.468;10.992;2023-07-13T13:38:25;25.40;98.60
14093;DHT22;7123;49.468;10.992;2023-07-13T13:40:52;25.50;97.60
14093;DHT22;7123;49.468;10.992;2023-07-13T13:43:23;25.40;97.70
14093;DHT22;7123;49.468;10.992;2023-07-13T13:45:55;25.30;98.30
14093;DHT22;7123;49.468;10.992;2023-07-13T13:48:31;25.10;97.90
14093;DHT22;7123;49.468;10.992;2023-07-13T13:50:59;25.00;98.10
14093;DHT22;7123;49.468;10.992;2023-07-13T13:53:26;25.00;98.20
14093;DHT22;7123;49.468;10.992;2023-07-13T13:55:53;25.10;98.50
14093;DHT22;7123;49.468;10.992;2023-07-13T13:58:21;25.10;98.00
14093;DHT22;7123;49.468;10.992;2023-07-13T14:00:48;25.10;98.60
14093;DHT22;7123;49.468;10.992;2023-07-13T14:03:20;25.30;98.20
14093;DHT22;7123;49.468;10.992;2023-07-13T14:05:48;25.30;97.70
14093;DHT22;7123;49.468;10.992;2023-07-13T14:08:20;25.30;97.80
14093;DHT22;7123;49.468;10.992;2023-07-13T14:10:53;25.30;97.10
14093;DHT22;7123;49.468;10.992;2023-07-13T14:13:30;25.20;97.30
14093;DHT22;7123;49.468;10.992;2023-07-13T14:15:58;25.20;97.10
14093;DHT22;7123;49.468;10.992;2023-07-13T14:18:26;25.20;97.40
14093;DHT22;7123;49.468;10.992;2023-07-13T14:20:52;25.50;97.50
14093;DHT22;7123;49.468;10.992;2023-07-13T14:23:20;25.70;96.50
14093;DHT22;7123;49.468;10.992;2023-07-13T14:25:47;25.90;96.30
14093;DHT22;7123;49.468;10.992;2023-07-13T14:30:47;26.20;95.50
14093;DHT22;7123;49.468;10.992;2023-07-13T14:33:15;26.40;94.90
14093;DHT22;7123;49.468;10.992;2023-07-13T14:35:44;26.40;94.80
14093;DHT22;7123;49.468;10.992;2023-07-13T14:38:14;26.20;94.60
14093;DHT22;7123;49.468;10.992;2023-07-13T14:40:42;26.00;94.40
14093;DHT22;7123;49.468;10.992;2023-07-13T14:43:13;26.10;94.30
14093;DHT22;7123;49.468;10.992;2023-07-13T14:45:43;26.40;93.70
14093;DHT22;7123;49.468;10.992;2023-07-13T14:48:23;26.50;93.20
14093;DHT22;7123;49.468;10.992;2023-07-13T14:50:57;26.60;93.50
14093;DHT22;7123;49.468;10.992;2023-07-13T14:53:27;26.60;93.70
14093;DHT22;7123;49.468;10.992;2023-07-13T14:55:54;26.70;93.90
14093;DHT22;7123;49.468;10.992;2023-07-13T14:58:21;26.50;92.90
14093;DHT22;7123;49.468;10.992;2023-07-13T15:00:48;26.30;93.10
14093;DHT22;7123;49.468;10.992;2023-07-13T15:03:20;26.30;93.30
14093;DHT22;7123;49.468;10.992;2023-07-13T15:05:51;26.30;93.40
14093;DHT22;7123;49.468;10.992;2023-07-13T15:08:19;26.50;93.00
14093;DHT22;7123;49.468;10.992;2023-07-13T15:10:46;26.50;92.60
14093;DHT22;7123;49.468;10.992;2023-07-13T15:13:19;26.50;92.40
14093;DHT22;7123;49.468;10.992;2023-07-13T15:15:49;26.70;92.60
14093;DHT22;7123;49.468;10.992;2023-07-13T15:18:20;27.00;92.30
14093;DHT22;7123;49.468;10.992;2023-07-13T15:20:51;27.10;92.10
14093;DHT22;7123;49.468;10.992;2023-07-13T15:23:22;27.10;92.00
14093;DHT22;7123;49.468;10.992;2023-07-13T15:25:49;27.20;91.70
14093;DHT22;7123;49.468;10.992;2023-07-13T15:28:16;27.20;91.40
14093;DHT22;7123;49.468;10.992;2023-07-13T15:30:45;27.30;91.50
14093;DHT22;7123;49.468;10.992;2023-07-13T15:33:35;27.20;91.80
14093;DHT22;7123;49.468;10.992;2023-07-13T15:36:04;27.00;92.20
14093;DHT22;7123;49.468;10.992;2023-07-13T15:38:34;26.90;91.60
14093;DHT22;7123;49.468;10.992;2023-07-13T15:43:48;26.70;91.60
14093;DHT22;7123;49.468;10.992;2023-07-13T15:46:15;26.70;92.00
14093;DHT22;7123;49.468;10.992;2023-07-13T15:48:42;26.70;92.20
14093;DHT22;7123;49.468;10.992;2023-07-13T15:51:34;26.70;91.70
14093;DHT22;7123;49.468;10.992;2023-07-13T15:54:03;26.70;92.30
14093;DHT22;7123;49.468;10.992;2023-07-13T15:56:34;26.50;92.70
14093;DHT22;7123;49.468;10.992;2023-07-13T15:59:02;26.50;92.30
14093;DHT22;7123;49.468;10.992;2023-07-13T16:01:30;26.50;92.70
14093;DHT22;7123;49.468;10.992;2023-07-13T16:03:59;26.40;92.90
14093;DHT22;7123;49.468;10.992;2023-07-13T16:06:34;26.60;92.60
14093;DHT22;7123;49.468;10.992;2023-07-13T16:09:02;26.50;92.40
14093;DHT22;7123;49.468;10.992;2023-07-13T16:11:35;26.40;92.50
14093;DHT22;7123;49.468;10.992;2023-07-13T16:14:03;26.40;91.90
14093;DHT22;7123;49.468;10.992;2023-07-13T16:16:32;26.50;91.90
14093;DHT22;7123;49.468;10.992;2023-07-13T16:19:03;26.70;91.80